sensor_id;sensor_type;location;lat;lon;timestamp;temperature;humidity
74368;DHT22;64991;41.090;-8.118;2023-01-23T00:03:05;17.80;70.60
74368;DHT22;64991;41.090;-8.118;2023-01-23T00:08:09;17.70;71.30
74368;DHT22;64991;41.090;-8.118;2023-01-23T00:13:12;17.80;70.80
74368;DHT22;64991;41.090;-8.118;2023-01-23T00:18:19;17.80;71.10
74368;DHT22;64991;41.090;-8.118;2023-01-23T00:23:22;17.70;70.80
74368;DHT22;64991;41.090;-8.118;2023-01-23T00:28:26;17.70;70.60
74368;DHT22;64991;41.090;-8.118;2023-01-23T00:33:31;17.80;70.80
74368;DHT22;64991;41.090;-8.118;2023-01-23T00:38:34;17.80;70.90
74368;DHT22;64991;41.090;-8.118;2023-01-23T00:43:38;17.80;70.90
74368;DHT22;64991;41.090;-8.118;2023-01-23T00:48:43;17.80;70.90
74368;DHT22;64991;41.090;-8.118;2023-01-23T00:53:46;17.80;70.80
74368;DHT22;64991;41.090;-8.118;2023-01-23T00:58:50;17.80;70.80
74368;DHT22;64991;41.090;-8.118;2023-01-23T01:03:54;17.80;71.00
74368;DHT22;64991;41.090;-8.118;2023-01-23T01:08:58;17.70;70.90
74368;DHT22;64991;41.090;-8.118;2023-01-23T01:14:02;17.70;70.90
74368;DHT22;64991;41.090;-8.118;2023-01-23T01:19:07;17.80;71.10
74368;DHT22;64991;41.090;-8.118;2023-01-23T01:24:10;17.80;70.90
74368;DHT22;64991;41.090;-8.118;2023-01-23T01:29:14;17.80;70.80
74368;DHT22;64991;41.090;-8.118;2023-01-23T01:34:19;17.70;71.00
74368;DHT22;64991;41.090;-8.118;2023-01-23T01:39:24;17.70;71.00
74368;DHT22;64991;41.090;-8.118;2023-01-23T01:44:27;17.60;70.70
74368;DHT22;64991;41.090;-8.118;2023-01-23T01:49:37;17.60;70.60
74368;DHT22;64991;41.090;-8.118;2023-01-23T01:54:41;17.60;70.40
74368;DHT22;64991;41.090;-8.118;2023-01-23T01:59:46;17.50;70.60
74368;DHT22;64991;41.090;-8.118;2023-01-23T02:04:53;17.50;70.70
74368;DHT22;64991;41.090;-8.118;2023-01-23T02:10:00;17.50;70.90
74368;DHT22;64991;41.090;-8.118;2023-01-23T02:15:05;17.50;70.70
74368;DHT22;64991;41.090;-8.118;2023-01-23T02:20:21;17.40;70.40
74368;DHT22;64991;41.090;-8.118;2023-01-23T02:25:26;17.50;70.20
74368;DHT22;64991;41.090;-8.118;2023-01-23T02:30:33;17.40;69.90
74368;DHT22;64991;41.090;-8.118;2023-01-23T02:35:37;17.40;70.60
74368;DHT22;64991;41.090;-8.118;2023-01-23T02:40:41;17.40;70.00
74368;DHT22;64991;41.090;-8.118;2023-01-23T02:45:46;17.40;69.60
74368;DHT22;64991;41.090;-8.118;2023-01-23T02:50:49;17.40;68.90
74368;DHT22;64991;41.090;-8.118;2023-01-23T02:55:53;17.40;69.60
74368;DHT22;64991;41.090;-8.118;2023-01-23T03:00:58;17.30;69.40
74368;DHT22;64991;41.090;-8.118;2023-01-23T03:06:02;17.30;69.20
74368;DHT22;64991;41.090;-8.118;2023-01-23T03:11:06;17.30;69.30
74368;DHT22;64991;41.090;-8.118;2023-01-23T03:16:11;17.30;69.20
74368;DHT22;64991;41.090;-8.118;2023-01-23T03:21:14;17.30;69.50
74368;DHT22;64991;41.090;-8.118;2023-01-23T03:26:18;17.20;69.10
74368;DHT22;64991;41.090;-8.118;2023-01-23T03:31:23;17.30;69.30
74368;DHT22;64991;41.090;-8.118;2023-01-23T03:36:26;17.30;69.70
74368;DHT22;64991;41.090;-8.118;2023-01-23T03:41:29;17.20;69.50
74368;DHT22;64991;41.090;-8.118;2023-01-23T03:46:34;17.20;69.60
74368;DHT22;64991;41.090;-8.118;2023-01-23T03:51:38;17.20;69.50
74368;DHT22;64991;41.090;-8.118;2023-01-23T03:56:41;17.20;69.50
74368;DHT22;64991;41.090;-8.118;2023-01-23T04:01:46;17.20;69.40
74368;DHT22;64991;41.090;-8.118;2023-01-23T04:06:50;17.20;68.90
74368;DHT22;64991;41.090;-8.118;2023-01-23T04:11:53;17.10;69.00
74368;DHT22;64991;41.090;-8.118;2023-01-23T04:16:58;17.20;69.30
74368;DHT22;64991;41.090;-8.118;2023-01-23T04:22:01;17.10;69.50
74368;DHT22;64991;41.090;-8.118;2023-01-23T04:27:05;17.10;69.10
74368;DHT22;64991;41.090;-8.118;2023-01-23T04:32:10;17.10;69.30
74368;DHT22;64991;41.090;-8.118;2023-01-23T04:37:13;17.10;69.00
74368;DHT22;64991;41.090;-8.118;2023-01-23T04:42:17;17.10;69.10
74368;DHT22;64991;41.090;-8.118;2023-01-23T04:47:22;17.00;69.20
74368;DHT22;64991;41.090;-8.118;2023-01-23T04:52:25;17.10;68.80
74368;DHT22;64991;41.090;-8.118;2023-01-23T04:57:29;17.00;68.10
74368;DHT22;64991;41.090;-8.118;2023-01-23T05:02:33;17.00;68.50
74368;DHT22;64991;41.090;-8.118;2023-01-23T05:07:37;17.00;68.60
74368;DHT22;64991;41.090;-8.118;2023-01-23T05:12:42;17.00;68.80
74368;DHT22;64991;41.090;-8.118;2023-01-23T05:17:47;17.00;68.50
74368;DHT22;64991;41.090;-8.118;2023-01-23T05:22:50;17.00;68.20
74368;DHT22;64991;41.090;-8.118;2023-01-23T05:27:54;17.00;68.20
74368;DHT22;64991;41.090;-8.118;2023-01-23T05:32:59;17.00;68.40
74368;DHT22;64991;41.090;-8.118;2023-01-23T05:38:02;17.00;68.40
74368;DHT22;64991;41.090;-8.118;2023-01-23T05:43:06;16.90;68.40
74368;DHT22;64991;41.090;-8.118;2023-01-23T05:48:11;17.00;68.40
74368;DHT22;64991;41.090;-8.118;2023-01-23T05:53:14;16.90;67.90
74368;DHT22;64991;41.090;-8.118;2023-01-23T05:58:18;16.80;67.80
74368;DHT22;64991;41.090;-8.118;2023-01-23T06:03:23;16.90;68.30
74368;DHT22;64991;41.090;-8.118;2023-01-23T06:08:26;16.80;68.20
74368;DHT22;64991;41.090;-8.118;2023-01-23T06:13:30;16.90;68.20
74368;DHT22;64991;41.090;-8.118;2023-01-23T06:18:34;16.80;68.10
74368;DHT22;64991;41.090;-8.118;2023-01-23T06:23:38;16.80;67.90
74368;DHT22;64991;41.090;-8.118;2023-01-23T06:28:41;16.70;67.90
74368;DHT22;64991;41.090;-8.118;2023-01-23T06:33:49;16.80;67.70
74368;DHT22;64991;41.090;-8.118;2023-01-23T06:38:53;16.80;67.40
74368;DHT22;64991;41.090;-8.118;2023-01-23T06:43:56;16.70;67.60
74368;DHT22;64991;41.090;-8.118;2023-01-23T06:49:01;16.80;67.50
74368;DHT22;64991;41.090;-8.118;2023-01-23T06:54:06;16.70;67.50
74368;DHT22;64991;41.090;-8.118;2023-01-23T06:59:10;16.70;67.80
74368;DHT22;64991;41.090;-8.118;2023-01-23T07:04:15;16.70;68.00
74368;DHT22;64991;41.090;-8.118;2023-01-23T07:09:18;16.80;67.80
74368;DHT22;64991;41.090;-8.118;2023-01-23T07:14:22;16.70;67.90
74368;DHT22;64991;41.090;-8.118;2023-01-23T07:19:29;16.70;67.90
74368;DHT22;64991;41.090;-8.118;2023-01-23T07:24:32;16.70;68.10
74368;DHT22;64991;41.090;-8.118;2023-01-23T07:29:36;16.60;67.50
74368;DHT22;64991;41.090;-8.118;2023-01-23T07:34:40;16.70;67.80
74368;DHT22;64991;41.090;-8.118;2023-01-23T07:39:44;16.60;67.40
74368;DHT22;64991;41.090;-8.118;2023-01-23T07:44:47;16.60;67.60
74368;DHT22;64991;41.090;-8.118;2023-01-23T07:49:52;16.60;67.60
74368;DHT22;64991;41.090;-8.118;2023-01-23T07:54:55;16.60;67.40
74368;DHT22;64991;41.090;-8.118;2023-01-23T07:59:59;16.60;67.90
74368;DHT22;64991;41.090;-8.118;2023-01-23T08:05:04;16.60;67.70
74368;DHT22;64991;41.090;-8.118;2023-01-23T08:10:09;16.60;67.70
74368;DHT22;64991;41.090;-8.118;2023-01-23T08:15:13;16.60;67.40
74368;DHT22;64991;41.090;-8.118;2023-01-23T08:20:18;16.60;67.80
74368;DHT22;64991;41.090;-8.118;2023-01-23T08:25:23;16.60;67.90
74368;DHT22;64991;41.090;-8.118;2023-01-23T08:30:27;16.60;67.80
74368;DHT22;64991;41.090;-8.118;2023-01-23T08:35:31;16.50;67.60
74368;DHT22;64991;41.090;-8.118;2023-01-23T08:40:35;16.50;67.70
74368;DHT22;64991;41.090;-8.118;2023-01-23T08:45:39;16.50;67.90
74368;DHT22;64991;41.090;-8.118;2023-01-23T08:50:44;16.50;67.70
74368;DHT22;64991;41.090;-8.118;2023-01-23T08:55:47;16.50;68.00
74368;DHT22;64991;41.090;-8.118;2023-01-23T09:00:50;16.50;68.00
74368;DHT22;64991;41.090;-8.118;2023-01-23T09:05:55;16.40;67.80
74368;DHT22;64991;41.090;-8.118;2023-01-23T09:11:02;16.50;68.10
74368;DHT22;64991;41.090;-8.118;2023-01-23T09:16:07;16.60;68.10
74368;DHT22;64991;41.090;-8.118;2023-01-23T09:21:13;16.50;68.00
74368;DHT22;64991;41.090;-8.118;2023-01-23T09:26:18;16.60;68.20
74368;DHT22;64991;41.090;-8.118;2023-01-23T09:31:21;16.60;68.20
74368;DHT22;64991;41.090;-8.118;2023-01-23T09:36:26;16.60;68.10
74368;DHT22;64991;41.090;-8.118;2023-01-23T09:41:43;16.60;68.20
74368;DHT22;64991;41.090;-8.118;2023-01-23T09:46:48;16.50;68.60
74368;DHT22;64991;41.090;-8.118;2023-01-23T09:51:55;16.60;68.30
74368;DHT22;64991;41.090;-8.118;2023-01-23T09:57:02;16.60;68.40
74368;DHT22;64991;41.090;-8.118;2023-01-23T10:02:12;16.50;68.60
74368;DHT22;64991;41.090;-8.118;2023-01-23T10:07:35;16.60;68.50
74368;DHT22;64991;41.090;-8.118;2023-01-23T10:12:48;16.60;68.80
74368;DHT22;64991;41.090;-8.118;2023-01-23T10:18:00;16.60;68.50
74368;DHT22;64991;41.090;-8.118;2023-01-23T10:23:14;16.60;68.50
74368;DHT22;64991;41.090;-8.118;2023-01-23T10:28:25;16.60;68.50
74368;DHT22;64991;41.090;-8.118;2023-01-23T10:33:36;16.60;68.40
74368;DHT22;64991;41.090;-8.118;2023-01-23T10:38:47;16.70;68.90
74368;DHT22;64991;41.090;-8.118;2023-01-23T10:43:54;16.60;68.50
74368;DHT22;64991;41.090;-8.118;2023-01-23T10:49:01;16.70;68.80
74368;DHT22;64991;41.090;-8.118;2023-01-23T10:54:09;16.70;68.60
74368;DHT22;64991;41.090;-8.118;2023-01-23T10:59:32;16.70;68.70
74368;DHT22;64991;41.090;-8.118;2023-01-23T11:04:38;16.70;68.60
74368;DHT22;64991;41.090;-8.118;2023-01-23T11:09:48;16.70;68.70
74368;DHT22;64991;41.090;-8.118;2023-01-23T11:20:23;16.70;68.90
74368;DHT22;64991;41.090;-8.118;2023-01-23T11:25:31;16.80;68.70
74368;DHT22;64991;41.090;-8.118;2023-01-23T11:30:37;16.70;68.70
74368;DHT22;64991;41.090;-8.118;2023-01-23T11:35:49;16.80;69.00
74368;DHT22;64991;41.090;-8.118;2023-01-23T11:40:58;16.80;68.80
74368;DHT22;64991;41.090;-8.118;2023-01-23T11:46:14;16.80;68.70
74368;DHT22;64991;41.090;-8.118;2023-01-23T11:51:29;16.80;68.60
74368;DHT22;64991;41.090;-8.118;2023-01-23T11:56:41;16.80;68.30
74368;DHT22;64991;41.090;-8.118;2023-01-23T12:02:11;16.80;68.90
74368;DHT22;64991;41.090;-8.118;2023-01-23T12:07:28;16.80;68.80
74368;DHT22;64991;41.090;-8.118;2023-01-23T12:12:45;16.90;68.90
74368;DHT22;64991;41.090;-8.118;2023-01-23T12:18:03;16.90;69.00
74368;DHT22;64991;41.090;-8.118;2023-01-23T12:23:21;16.80;68.80
74368;DHT22;64991;41.090;-8.118;2023-01-23T12:28:38;16.80;68.80
74368;DHT22;64991;41.090;-8.118;2023-01-23T12:39:32;16.80;69.10
74368;DHT22;64991;41.090;-8.118;2023-01-23T12:44:58;16.80;68.90
74368;DHT22;64991;41.090;-8.118;2023-01-23T12:50:11;16.80;69.20
74368;DHT22;64991;41.090;-8.118;2023-01-23T12:55:19;16.90;68.90
74368;DHT22;64991;41.090;-8.118;2023-01-23T13:00:37;16.90;69.20
74368;DHT22;64991;41.090;-8.118;2023-01-23T13:05:50;16.90;69.10
74368;DHT22;64991;41.090;-8.118;2023-01-23T13:11:02;16.90;69.40
74368;DHT22;64991;41.090;-8.118;2023-01-23T13:16:26;16.90;69.50
74368;DHT22;64991;41.090;-8.118;2023-01-23T13:21:30;16.80;69.70
74368;DHT22;64991;41.090;-8.118;2023-01-23T13:26:52;16.90;69.50
74368;DHT22;64991;41.090;-8.118;2023-01-23T13:32:13;16.80;69.40
74368;DHT22;64991;41.090;-8.118;2023-01-23T13:42:53;16.90;69.50
74368;DHT22;64991;41.090;-8.118;2023-01-23T13:48:14;16.80;69.20
74368;DHT22;64991;41.090;-8.118;2023-01-23T13:53:56;16.80;69.70
74368;DHT22;64991;41.090;-8.118;2023-01-23T13:59:31;16.80;69.90
74368;DHT22;64991;41.090;-8.118;2023-01-23T14:04:56;16.90;69.40
74368;DHT22;64991;41.090;-8.118;2023-01-23T14:10:29;16.80;69.60
74368;DHT22;64991;41.090;-8.118;2023-01-23T14:15:48;16.80;69.40
74368;DHT22;64991;41.090;-8.118;2023-01-23T14:21:25;16.80;70.00
74368;DHT22;64991;41.090;-8.118;2023-01-23T14:26:46;16.80;69.70
74368;DHT22;64991;41.090;-8.118;2023-01-23T14:31:51;16.70;70.00
74368;DHT22;64991;41.090;-8.118;2023-01-23T14:37:02;16.80;70.10
74368;DHT22;64991;41.090;-8.118;2023-01-23T14:42:06;16.70;70.40
74368;DHT22;64991;41.090;-8.118;2023-01-23T14:47:22;16.70;70.50
74368;DHT22;64991;41.090;-8.118;2023-01-23T14:52:35;16.70;70.70
74368;DHT22;64991;41.090;-8.118;2023-01-23T14:57:39;16.70;70.40
74368;DHT22;64991;41.090;-8.118;2023-01-23T15:02:43;16.60;70.50
74368;DHT22;64991;41.090;-8.118;2023-01-23T15:07:49;16.60;70.70
74368;DHT22;64991;41.090;-8.118;2023-01-23T15:12:57;16.60;70.50
74368;DHT22;64991;41.090;-8.118;2023-01-23T15:18:03;16.60;70.60
74368;DHT22;64991;41.090;-8.118;2023-01-23T15:23:26;16.50;70.60
74368;DHT22;64991;41.090;-8.118;2023-01-23T15:28:36;16.60;70.40
74368;DHT22;64991;41.090;-8.118;2023-01-23T15:33:40;16.60;70.60
74368;DHT22;64991;41.090;-8.118;2023-01-23T15:38:47;16.60;70.60
74368;DHT22;64991;41.090;-8.118;2023-01-23T15:43:50;16.50;70.50
74368;DHT22;64991;41.090;-8.118;2023-01-23T15:48:54;16.40;70.70
74368;DHT22;64991;41.090;-8.118;2023-01-23T15:53:59;16.40;70.50
74368;DHT22;64991;41.090;-8.118;2023-01-23T15:59:04;16.50;70.40
74368;DHT22;64991;41.090;-8.118;2023-01-23T16:04:08;16.40;70.60
74368;DHT22;64991;41.090;-8.118;2023-01-23T16:09:15;16.40;70.70
74368;DHT22;64991;41.090;-8.118;2023-01-23T16:14:23;16.40;70.50
74368;DHT22;64991;41.090;-8.118;2023-01-23T16:19:26;16.50;70.70
74368;DHT22;64991;41.090;-8.118;2023-01-23T16:24:32;16.40;70.90
74368;DHT22;64991;41.090;-8.118;2023-01-23T16:29:38;16.40;70.50
74368;DHT22;64991;41.090;-8.118;2023-01-23T16:34:44;16.30;70.40
74368;DHT22;64991;41.090;-8.118;2023-01-23T16:39:49;16.30;70.30
74368;DHT22;64991;41.090;-8.118;2023-01-23T16:44:53;16.30;70.50
74368;DHT22;64991;41.090;-8.118;2023-01-23T16:49:58;16.30;70.60
74368;DHT22;64991;41.090;-8.118;2023-01-23T16:55:03;16.30;70.50
74368;DHT22;64991;41.090;-8.118;2023-01-23T17:00:13;16.20;70.50
74368;DHT22;64991;41.090;-8.118;2023-01-23T17:05:36;16.30;70.40
74368;DHT22;64991;41.090;-8.118;2023-01-23T17:10:41;16.30;70.50
74368;DHT22;64991;41.090;-8.118;2023-01-23T17:15:47;16.20;70.50
74368;DHT22;64991;41.090;-8.118;2023-01-23T17:20:52;16.30;70.50
74368;DHT22;64991;41.090;-8.118;2023-01-23T17:25:58;16.20;70.30
74368;DHT22;64991;41.090;-8.118;2023-01-23T17:31:02;16.20;70.20
74368;DHT22;64991;41.090;-8.118;2023-01-23T17:36:06;16.20;70.10
74368;DHT22;64991;41.090;-8.118;2023-01-23T17:41:15;16.20;70.60
74368;DHT22;64991;41.090;-8.118;2023-01-23T17:46:19;16.20;70.40
74368;DHT22;64991;41.090;-8.118;2023-01-23T17:51:24;16.10;70.30
74368;DHT22;64991;41.090;-8.118;2023-01-23T17:56:30;16.20;70.20
74368;DHT22;64991;41.090;-8.118;2023-01-23T18:01:33;16.20;70.10
74368;DHT22;64991;41.090;-8.118;2023-01-23T18:06:37;16.10;70.40
74368;DHT22;64991;41.090;-8.118;2023-01-23T18:11:43;16.20;70.30
74368;DHT22;64991;41.090;-8.118;2023-01-23T18:16:53;16.10;70.30
74368;DHT22;64991;41.090;-8.118;2023-01-23T18:21:57;16.20;70.00
74368;DHT22;64991;41.090;-8.118;2023-01-23T18:27:06;16.20;70.30
74368;DHT22;64991;41.090;-8.118;2023-01-23T18:32:22;16.20;70.60
74368;DHT22;64991;41.090;-8.118;2023-01-23T18:37:44;16.20;70.50
74368;DHT22;64991;41.090;-8.118;2023-01-23T18:42:55;16.10;70.20
74368;DHT22;64991;41.090;-8.118;2023-01-23T18:48:02;16.10;70.40
74368;DHT22;64991;41.090;-8.118;2023-01-23T18:53:26;16.10;70.20
74368;DHT22;64991;41.090;-8.118;2023-01-23T18:58:44;16.10;70.60
74368;DHT22;64991;41.090;-8.118;2023-01-23T19:04:12;16.10;70.60
74368;DHT22;64991;41.090;-8.118;2023-01-23T19:09:17;16.10;70.70
74368;DHT22;64991;41.090;-8.118;2023-01-23T19:14:27;16.00;70.50
74368;DHT22;64991;41.090;-8.118;2023-01-23T19:19:44;16.10;70.70
74368;DHT22;64991;41.090;-8.118;2023-01-23T19:24:50;16.10;70.60
74368;DHT22;64991;41.090;-8.118;2023-01-23T19:29:56;16.00;70.60
74368;DHT22;64991;41.090;-8.118;2023-01-23T19:34:59;16.00;70.80
74368;DHT22;64991;41.090;-8.118;2023-01-23T19:40:14;16.00;70.60
74368;DHT22;64991;41.090;-8.118;2023-01-23T19:45:20;16.00;70.70
74368;DHT22;64991;41.090;-8.118;2023-01-23T19:50:24;16.00;70.50
74368;DHT22;64991;41.090;-8.118;2023-01-23T19:55:28;15.90;70.40
74368;DHT22;64991;41.090;-8.118;2023-01-23T20:00:35;15.90;70.30
74368;DHT22;64991;41.090;-8.118;2023-01-23T20:05:38;16.00;70.30
74368;DHT22;64991;41.090;-8.118;2023-01-23T20:10:41;16.00;70.50
74368;DHT22;64991;41.090;-8.118;2023-01-23T20:15:46;16.00;70.40
74368;DHT22;64991;41.090;-8.118;2023-01-23T20:20:56;16.00;70.40
74368;DHT22;64991;41.090;-8.118;2023-01-23T20:26:00;15.90;70.50
74368;DHT22;64991;41.090;-8.118;2023-01-23T20:31:06;16.00;70.30
74368;DHT22;64991;41.090;-8.118;2023-01-23T20:36:11;15.90;70.30
74368;DHT22;64991;41.090;-8.118;2023-01-23T20:41:17;15.90;70.20
74368;DHT22;64991;41.090;-8.118;2023-01-23T20:46:22;15.90;70.30
74368;DHT22;64991;41.090;-8.118;2023-01-23T20:51:27;15.90;70.30
74368;DHT22;64991;41.090;-8.118;2023-01-23T20:56:31;15.90;70.10
74368;DHT22;64991;41.090;-8.118;2023-01-23T21:01:36;15.90;70.20
74368;DHT22;64991;41.090;-8.118;2023-01-23T21:06:54;15.90;70.40
74368;DHT22;64991;41.090;-8.118;2023-01-23T21:11:58;15.90;70.10
74368;DHT22;64991;41.090;-8.118;2023-01-23T21:17:03;15.90;70.20
74368;DHT22;64991;41.090;-8.118;2023-01-23T21:22:07;15.80;70.10
74368;DHT22;64991;41.090;-8.118;2023-01-23T21:27:10;15.90;70.20
74368;DHT22;64991;41.090;-8.118;2023-01-23T21:32:16;15.80;70.00
74368;DHT22;64991;41.090;-8.118;2023-01-23T21:37:21;15.80;70.10
74368;DHT22;64991;41.090;-8.118;2023-01-23T21:42:25;15.90;70.00
74368;DHT22;64991;41.090;-8.118;2023-01-23T21:47:30;15.80;69.70
74368;DHT22;64991;41.090;-8.118;2023-01-23T21:52:33;15.90;69.90
74368;DHT22;64991;41.090;-8.118;2023-01-23T21:57:37;15.90;69.90
74368;DHT22;64991;41.090;-8.118;2023-01-23T22:02:42;15.80;70.20
74368;DHT22;64991;41.090;-8.118;2023-01-23T22:07:45;15.70;69.90
74368;DHT22;64991;41.090;-8.118;2023-01-23T22:12:49;15.80;70.20
74368;DHT22;64991;41.090;-8.118;2023-01-23T22:17:54;15.80;69.80
74368;DHT22;64991;41.090;-8.118;2023-01-23T22:22:57;15.80;69.90
74368;DHT22;64991;41.090;-8.118;2023-01-23T22:28:00;15.80;70.10
74368;DHT22;64991;41.090;-8.118;2023-01-23T22:33:05;15.80;70.00
74368;DHT22;64991;41.090;-8.118;2023-01-23T22:38:09;15.80;70.00
74368;DHT22;64991;41.090;-8.118;2023-01-23T22:43:14;15.80;69.80
74368;DHT22;64991;41.090;-8.118;2023-01-23T22:48:18;15.80;69.70
74368;DHT22;64991;41.090;-8.118;2023-01-23T22:53:22;15.80;69.50
74368;DHT22;64991;41.090;-8.118;2023-01-23T22:58:25;15.80;69.40
74368;DHT22;64991;41.090;-8.118;2023-01-23T23:03:30;15.80;69.50
74368;DHT22;64991;41.090;-8.118;2023-01-23T23:08:34;15.80;69.60
74368;DHT22;64991;41.090;-8.118;2023-01-23T23:13:39;15.80;69.70
74368;DHT22;64991;41.090;-8.118;2023-01-23T23:18:44;15.80;69.70
74368;DHT22;64991;41.090;-8.118;2023-01-23T23:23:48;15.80;69.60
74368;DHT22;64991;41.090;-8.118;2023-01-23T23:28:53;15.70;69.70
74368;DHT22;64991;41.090;-8.118;2023-01-23T23:33:58;15.80;69.70
74368;DHT22;64991;41.090;-8.118;2023-01-23T23:39:01;15.80;69.40
74368;DHT22;64991;41.090;-8.118;2023-01-23T23:44:05;15.80;69.50
74368;DHT22;64991;41.090;-8.118;2023-01-23T23:49:09;15.70;69.40
74368;DHT22;64991;41.090;-8.118;2023-01-23T23:54:13;15.70;69.60
74368;DHT22;64991;41.090;-8.118;2023-01-23T23:59:16;15.70;69.50
